createdAt,value
2019-06-27T00:00:51.515Z,4.00
2019-06-27T00:01:51.521Z,4.00
2019-06-27T00:02:51.539Z,4.00
2019-06-27T00:03:51.561Z,4.00
2019-06-27T00:04:51.578Z,4.00
2019-06-27T00:05:51.586Z,4.00
2019-06-27T00:06:51.606Z,4.00
2019-06-27T00:07:51.618Z,4.00
2019-06-27T00:08:51.643Z,4.00
2019-06-27T00:09:51.663Z,4.00
2019-06-27T00:10:51.674Z,4.00
2019-06-27T00:11:51.679Z,4.00
2019-06-27T00:12:51.698Z,4.00
2019-06-27T00:15:51.750Z,4.00
2019-06-27T00:16:51.817Z,4.00
2019-06-27T00:17:51.780Z,4.00
2019-06-27T00:18:51.795Z,4.00
2019-06-27T00:19:51.812Z,4.00
2019-06-27T00:20:51.829Z,4.00
2019-06-27T00:21:51.853Z,4.00
2019-06-27T00:22:51.856Z,4.00
2019-06-27T00:23:52.399Z,4.00
2019-06-27T00:24:52.024Z,4.00
2019-06-27T00:25:52.333Z,4.00
2019-06-27T00:26:56.951Z,4.00
2019-06-27T00:27:51.944Z,4.00
2019-06-27T00:28:51.960Z,4.00
2019-06-27T00:29:51.971Z,4.00
2019-06-27T00:30:52.015Z,4.00
2019-06-27T00:31:52.004Z,4.00
2019-06-27T00:32:52.018Z,4.00
2019-06-27T00:33:52.045Z,4.00
2019-06-27T00:34:52.066Z,4.00
2019-06-27T00:35:52.077Z,4.00
2019-06-27T00:36:52.083Z,4.00
2019-06-27T00:37:52.113Z,4.00
2019-06-27T00:38:52.116Z,4.00
2019-06-27T00:39:52.135Z,4.00
2019-06-27T00:40:52.214Z,4.00
2019-06-27T00:41:52.183Z,4.00
2019-06-27T00:42:52.182Z,4.00
2019-06-27T00:43:52.197Z,4.00
2019-06-27T00:44:52.213Z,4.00
2019-06-27T00:45:52.230Z,4.00
2019-06-27T00:46:52.249Z,4.00
2019-06-27T00:47:52.266Z,4.00
2019-06-27T00:48:52.276Z,4.00
2019-06-27T00:49:52.303Z,4.00
2019-06-27T00:50:52.315Z,4.00
2019-06-27T00:51:52.334Z,4.00
2019-06-27T00:52:52.343Z,4.00
2019-06-27T00:53:52.367Z,4.00
2019-06-27T00:54:52.373Z,4.00
2019-06-27T00:55:52.388Z,4.00
2019-06-27T00:56:52.411Z,4.00
2019-06-27T00:57:52.431Z,4.00
2019-06-27T00:58:52.454Z,4.00
2019-06-27T00:59:52.459Z,4.00
2019-06-27T01:00:52.476Z,4.00
2019-06-27T01:01:52.500Z,4.00
2019-06-27T01:02:52.504Z,4.00
2019-06-27T01:03:52.538Z,4.00
2019-06-27T01:04:52.535Z,4.00
2019-06-27T01:05:52.556Z,4.00
2019-06-27T01:06:52.570Z,4.00
2019-06-27T01:07:52.578Z,4.00
2019-06-27T01:08:52.598Z,4.00
2019-06-27T01:09:52.612Z,4.00
2019-06-27T01:10:52.630Z,4.00
2019-06-27T01:11:52.650Z,4.00
2019-06-27T01:12:52.666Z,4.00
2019-06-27T01:13:52.680Z,4.00
2019-06-27T01:14:52.697Z,4.00
2019-06-27T01:15:52.707Z,4.00
2019-06-27T01:16:52.747Z,4.00
2019-06-27T01:17:52.742Z,4.00
2019-06-27T01:18:52.763Z,4.00
2019-06-27T01:19:52.771Z,4.00
2019-06-27T01:20:52.795Z,4.00
2019-06-27T01:21:52.803Z,4.00
2019-06-27T01:22:52.822Z,4.00
2019-06-27T01:23:52.835Z,4.00
2019-06-27T01:24:52.853Z,4.00
2019-06-27T01:25:52.880Z,4.00
2019-06-27T01:26:52.885Z,4.00
2019-06-27T01:27:52.913Z,4.00
2019-06-27T01:28:52.915Z,4.00
2019-06-27T01:29:52.936Z,4.00
2019-06-27T01:30:52.953Z,4.00
2019-06-27T01:31:52.967Z,4.00
2019-06-27T01:32:53.003Z,4.00
2019-06-27T01:33:53.000Z,4.00
2019-06-27T01:34:53.017Z,4.00
2019-06-27T01:35:53.027Z,4.00
2019-06-27T01:36:53.041Z,4.00
2019-06-27T01:37:53.058Z,4.00
2019-06-27T01:38:53.074Z,4.00
2019-06-27T01:39:53.094Z,4.00
2019-06-27T01:40:53.114Z,4.00
2019-06-27T01:41:53.124Z,4.00
2019-06-27T01:42:53.145Z,4.00
2019-06-27T01:43:53.161Z,4.00
2019-06-27T01:44:53.170Z,4.00
2019-06-27T01:45:53.185Z,4.00
2019-06-27T01:46:53.210Z,4.00
2019-06-27T01:47:53.227Z,4.00
2019-06-27T01:48:53.232Z,4.00
2019-06-27T01:49:53.262Z,4.00
2019-06-27T01:50:53.331Z,4.00
2019-06-27T01:51:53.287Z,4.00
2019-06-27T01:52:53.302Z,4.00
2019-06-27T01:53:53.313Z,4.00
2019-06-27T01:54:53.337Z,4.00
2019-06-27T01:55:53.345Z,4.00
2019-06-27T01:56:53.362Z,4.00
2019-06-27T01:57:53.387Z,4.00
2019-06-27T01:58:53.403Z,4.00
2019-06-27T01:59:53.416Z,4.00
2019-06-27T02:00:53.431Z,4.00
2019-06-27T02:01:53.441Z,4.00
2019-06-27T02:02:53.465Z,4.00
2019-06-27T02:03:53.477Z,4.00
2019-06-27T02:04:53.488Z,4.00
2019-06-27T02:05:53.505Z,4.00
2019-06-27T02:06:53.521Z,4.00
2019-06-27T02:07:53.526Z,4.00
2019-06-27T02:08:53.555Z,4.00
2019-06-27T02:09:53.569Z,4.00
2019-06-27T02:10:53.578Z,4.00
2019-06-27T02:11:53.592Z,4.00
2019-06-27T02:12:53.615Z,4.00
2019-06-27T02:13:53.629Z,4.00
2019-06-27T02:14:53.640Z,4.00
2019-06-27T02:15:53.657Z,4.00
2019-06-27T02:16:53.669Z,4.00
2019-06-27T02:17:53.691Z,4.00
2019-06-27T02:18:53.717Z,4.00
2019-06-27T02:19:53.720Z,4.00
2019-06-27T02:20:53.771Z,4.00
2019-06-27T02:21:53.764Z,4.00
2019-06-27T02:22:53.774Z,4.00
2019-06-27T02:23:53.790Z,4.00
2019-06-27T02:24:53.806Z,4.00
2019-06-27T02:25:53.815Z,4.00
2019-06-27T02:26:53.848Z,4.00
2019-06-27T02:28:03.978Z,4.00
2019-06-27T02:28:53.861Z,4.00
2019-06-27T02:29:53.890Z,4.00
2019-06-27T02:30:53.900Z,4.00
2019-06-27T02:31:53.908Z,4.00
2019-06-27T02:32:53.935Z,4.00
2019-06-27T02:33:53.945Z,4.00
2019-06-27T02:34:53.966Z,4.00
2019-06-27T02:35:53.971Z,4.00
2019-06-27T02:36:53.989Z,0.00
2019-06-27T02:37:54.005Z,0.00
2019-06-27T02:38:54.038Z,4.00
2019-06-27T02:39:54.042Z,4.00
2019-06-27T02:40:58.266Z,4.00
2019-06-27T02:41:54.120Z,4.00
2019-06-27T02:42:54.086Z,4.00
2019-06-27T02:43:54.101Z,4.00
2019-06-27T02:44:54.124Z,4.00
2019-06-27T02:45:54.139Z,4.00
2019-06-27T02:46:54.146Z,4.00
2019-06-27T02:47:54.172Z,4.00
2019-06-27T02:48:54.185Z,4.00
2019-06-27T02:49:54.194Z,8.00
2019-06-27T02:50:54.425Z,4.00
2019-06-27T02:51:54.247Z,4.00
2019-06-27T02:52:54.260Z,8.00
2019-06-27T02:53:54.259Z,4.00
2019-06-27T02:54:54.276Z,8.00
2019-06-27T02:55:54.304Z,8.00
2019-06-27T02:56:54.304Z,8.00
2019-06-27T02:57:54.325Z,8.00
2019-06-27T02:58:54.344Z,8.00
2019-06-27T02:59:54.349Z,12.00
2019-06-27T03:00:54.369Z,12.00
2019-06-27T03:01:54.402Z,16.00
2019-06-27T03:02:54.405Z,16.00
2019-06-27T03:03:54.421Z,16.00
2019-06-27T03:04:54.430Z,16.00
2019-06-27T03:05:54.467Z,20.00
2019-06-27T03:06:54.462Z,20.00
2019-06-27T03:07:54.478Z,20.00
2019-06-27T03:08:54.498Z,24.00
2019-06-27T03:09:54.517Z,24.00
2019-06-27T03:10:54.533Z,24.00
2019-06-27T03:11:59.334Z,28.00
2019-06-27T03:12:54.560Z,32.00
2019-06-27T03:13:54.578Z,32.00
2019-06-27T03:14:54.589Z,36.00
2019-06-27T03:15:54.603Z,40.00
2019-06-27T03:16:54.640Z,40.00
2019-06-27T03:17:54.648Z,44.00
2019-06-27T03:18:54.669Z,44.00
2019-06-27T03:19:54.675Z,52.00
2019-06-27T03:20:54.706Z,56.00
2019-06-27T03:21:54.706Z,60.00
2019-06-27T03:22:54.755Z,64.00
2019-06-27T03:23:54.746Z,68.00
2019-06-27T03:25:54.825Z,72.00
2019-06-27T03:26:54.781Z,76.00
2019-06-27T03:27:54.807Z,80.00
2019-06-27T03:28:54.854Z,84.00
2019-06-27T03:29:54.833Z,84.00
2019-06-27T03:30:54.896Z,88.00
2019-06-27T03:31:54.858Z,92.00
2019-06-27T03:32:54.879Z,96.00
2019-06-27T03:33:54.893Z,100.00
2019-06-27T03:34:54.907Z,108.00
2019-06-27T03:35:54.929Z,112.00
2019-06-27T03:36:54.935Z,116.00
2019-06-27T03:37:54.959Z,124.00
2019-06-27T03:38:55.001Z,128.00
2019-06-27T03:39:54.996Z,132.00
2019-06-27T03:40:55.001Z,136.00
2019-06-27T03:41:55.023Z,140.00
2019-06-27T03:42:55.036Z,144.00
2019-06-27T03:43:55.043Z,148.00
2019-06-27T03:44:55.063Z,152.00
2019-06-27T03:45:55.079Z,160.00
2019-06-27T03:46:55.308Z,160.00
2019-06-27T03:47:55.123Z,164.00
2019-06-27T03:48:55.137Z,172.00
2019-06-27T03:49:55.155Z,176.00
2019-06-27T03:50:56.427Z,180.00
2019-06-27T03:51:55.170Z,184.00
2019-06-27T03:52:55.192Z,192.00
2019-06-27T03:53:55.210Z,200.00
2019-06-27T03:54:55.226Z,216.00
2019-06-27T03:55:55.241Z,232.00
2019-06-27T03:56:55.257Z,244.00
2019-06-27T03:57:55.302Z,256.00
2019-06-27T03:59:11.345Z,260.00
2019-06-27T03:59:55.295Z,268.00
2019-06-27T04:00:55.313Z,276.00
2019-06-27T04:01:55.333Z,292.00
2019-06-27T04:02:55.350Z,316.00
2019-06-27T04:03:55.364Z,348.00
2019-06-27T04:04:55.392Z,384.00
2019-06-27T04:05:55.403Z,412.00
2019-06-27T04:06:55.414Z,432.00
2019-06-27T04:07:55.436Z,440.00
2019-06-27T04:08:55.447Z,444.00
2019-06-27T04:09:55.459Z,456.00
2019-06-27T04:10:55.472Z,476.00
2019-06-27T04:11:55.515Z,480.00
2019-06-27T04:12:55.504Z,488.00
2019-06-27T04:13:55.522Z,492.00
2019-06-27T04:14:55.531Z,500.00
2019-06-27T04:15:55.558Z,504.00
2019-06-27T04:16:55.572Z,488.00
2019-06-27T04:17:55.579Z,488.00
2019-06-27T04:18:55.607Z,496.00
2019-06-27T04:19:55.628Z,504.00
2019-06-27T04:20:55.628Z,520.00
2019-06-27T04:21:55.660Z,532.00
2019-06-27T04:22:55.673Z,536.00
2019-06-27T04:23:55.714Z,548.00
2019-06-27T04:24:55.691Z,564.00
2019-06-27T04:25:55.715Z,596.00
2019-06-27T04:26:55.722Z,632.00
2019-06-27T04:27:59.597Z,644.00
2019-06-27T04:28:55.779Z,656.00
2019-06-27T04:29:55.785Z,680.00
2019-06-27T04:30:55.828Z,700.00
2019-06-27T04:31:55.963Z,712.00
2019-06-27T04:32:55.867Z,712.00
2019-06-27T04:33:55.832Z,712.00
2019-06-27T04:34:55.847Z,724.00
2019-06-27T04:35:55.869Z,748.00
2019-06-27T04:36:55.892Z,776.00
2019-06-27T04:37:56.048Z,788.00
2019-06-27T04:38:56.139Z,788.00
2019-06-27T04:39:55.952Z,792.00
2019-06-27T04:40:56.054Z,788.00
2019-06-27T04:42:55.989Z,776.00
2019-06-27T04:43:56.177Z,772.00
2019-06-27T04:44:56.003Z,764.00
2019-06-27T04:45:56.029Z,760.00
2019-06-27T04:46:56.036Z,752.00
2019-06-27T04:47:56.063Z,748.00
2019-06-27T04:48:56.070Z,748.00
2019-06-27T04:49:56.097Z,736.00
2019-06-27T04:50:56.103Z,728.00
2019-06-27T04:51:56.122Z,728.00
2019-06-27T04:52:56.133Z,720.00
2019-06-27T04:53:57.349Z,720.00
2019-06-27T04:54:56.265Z,748.00
2019-06-27T04:55:57.586Z,772.00
2019-06-27T04:56:57.120Z,812.00
2019-06-27T04:57:56.234Z,848.00
2019-06-27T04:58:56.279Z,860.00
2019-06-27T04:59:56.295Z,852.00
2019-06-27T05:00:56.271Z,868.00
2019-06-27T05:01:56.283Z,908.00
2019-06-27T05:02:56.287Z,932.00
2019-06-27T05:03:56.318Z,936.00
2019-06-27T05:04:56.323Z,952.00
2019-06-27T05:05:56.345Z,992.00
2019-06-27T05:06:56.361Z,1060.00
2019-06-27T05:07:56.363Z,1116.00
2019-06-27T05:08:56.454Z,1168.00
2019-06-27T05:09:56.410Z,1256.00
2019-06-27T05:10:56.437Z,1280.00
2019-06-27T05:11:56.439Z,1328.00
2019-06-27T05:12:56.452Z,1816.00
2019-06-27T05:13:56.486Z,1600.00
2019-06-27T05:14:56.488Z,1488.00
2019-06-27T05:15:56.603Z,1336.00
2019-06-27T05:16:56.533Z,1396.00
2019-06-27T05:17:56.544Z,1500.00
2019-06-27T05:18:56.548Z,1388.00
2019-06-27T05:19:56.585Z,1444.00
2019-06-27T05:20:56.580Z,1452.00
2019-06-27T05:21:56.590Z,1456.00
2019-06-27T05:22:56.601Z,1472.00
2019-06-27T05:23:56.617Z,1560.00
2019-06-27T05:24:56.640Z,1516.00
2019-06-27T05:25:56.663Z,1528.00
2019-06-27T05:26:56.699Z,1536.00
2019-06-27T05:27:56.682Z,1524.00
2019-06-27T05:30:08.605Z,1496.00
2019-06-27T05:30:56.774Z,1460.00
2019-06-27T05:31:56.810Z,1436.00
2019-06-27T05:32:56.802Z,1388.00
2019-06-27T05:33:56.775Z,1412.00
2019-06-27T05:34:56.789Z,1496.00
2019-06-27T05:36:56.830Z,1528.00
2019-06-27T05:37:56.862Z,1852.00
2019-06-27T05:38:56.880Z,1832.00
2019-06-27T05:39:56.876Z,1700.00
2019-06-27T05:40:56.887Z,1712.00
2019-06-27T05:41:56.924Z,1652.00
2019-06-27T05:42:56.919Z,1704.00
2019-06-27T05:43:56.931Z,1784.00
2019-06-27T05:44:56.948Z,1680.00
2019-06-27T05:45:56.967Z,1612.00
2019-06-27T05:46:56.985Z,1932.00
2019-06-27T05:47:56.995Z,1924.00
2019-06-27T05:48:57.024Z,2044.00
2019-06-27T05:49:57.067Z,1924.00
2019-06-27T05:50:57.050Z,2368.00
2019-06-27T05:51:57.148Z,1604.00
2019-06-27T05:52:57.792Z,2204.00
2019-06-27T05:53:57.103Z,1416.00
2019-06-27T05:54:57.157Z,1368.00
2019-06-27T05:55:57.885Z,1660.00
2019-06-27T05:56:57.158Z,1724.00
2019-06-27T05:57:57.158Z,1424.00
2019-06-27T05:58:57.718Z,1360.00
2019-06-27T05:59:57.352Z,1504.00
2019-06-27T06:00:57.222Z,1244.00
2019-06-27T06:01:57.222Z,1268.00
2019-06-27T06:02:57.225Z,1668.00
2019-06-27T06:03:57.242Z,1356.00
2019-06-27T06:04:57.262Z,1168.00
2019-06-27T06:05:57.280Z,1184.00
2019-06-27T06:06:57.297Z,1324.00
2019-06-27T06:07:57.309Z,1488.00
2019-06-27T06:08:57.319Z,1388.00
2019-06-27T06:09:57.337Z,1348.00
2019-06-27T06:10:57.373Z,2252.00
2019-06-27T06:11:57.370Z,1848.00
2019-06-27T06:12:57.400Z,1748.00
2019-06-27T06:13:58.328Z,2252.00
2019-06-27T06:14:57.424Z,2320.00
2019-06-27T06:16:00.823Z,2312.00
2019-06-27T06:16:57.463Z,2340.00
2019-06-27T06:17:57.490Z,1496.00
2019-06-27T06:18:57.478Z,2368.00
2019-06-27T06:19:57.499Z,2196.00
2019-06-27T06:20:57.510Z,2096.00
2019-06-27T06:21:57.522Z,2240.00
2019-06-27T06:22:57.539Z,2148.00
2019-06-27T06:23:57.706Z,2164.00
2019-06-27T06:25:57.586Z,2324.00
2019-06-27T06:26:57.606Z,2296.00
2019-06-27T06:27:57.618Z,2392.00
2019-06-27T06:28:57.639Z,2124.00
2019-06-27T06:29:57.897Z,2184.00
2019-06-27T06:30:57.682Z,1540.00
2019-06-27T06:31:57.742Z,2012.00
2019-06-27T06:32:57.710Z,2384.00
2019-06-27T06:33:57.738Z,2536.00
2019-06-27T06:34:57.733Z,1780.00
2019-06-27T06:35:57.746Z,2084.00
2019-06-27T06:36:57.756Z,1600.00
2019-06-27T06:38:57.790Z,2468.00
2019-06-27T06:39:57.821Z,2428.00
2019-06-27T06:40:57.839Z,2436.00
2019-06-27T06:41:57.885Z,2456.00
2019-06-27T06:43:00.455Z,2420.00
2019-06-27T06:43:57.861Z,2436.00
2019-06-27T06:44:57.906Z,2428.00
2019-06-27T06:45:57.936Z,2468.00
2019-06-27T06:46:58.486Z,2084.00
2019-06-27T06:47:57.926Z,2376.00
2019-06-27T06:48:57.953Z,2432.00
2019-06-27T06:49:57.970Z,2432.00
2019-06-27T06:50:57.974Z,2404.00
2019-06-27T06:51:58.063Z,2392.00
2019-06-27T06:52:58.004Z,2420.00
2019-06-27T06:53:58.267Z,2472.00
2019-06-27T06:54:58.269Z,2452.00
2019-06-27T06:55:58.057Z,2484.00
2019-06-27T06:56:58.062Z,2428.00
2019-06-27T06:57:58.081Z,2512.00
2019-06-27T06:58:58.093Z,2528.00
2019-06-27T06:59:58.118Z,2512.00
2019-06-27T07:01:01.841Z,2556.00
2019-06-27T07:01:58.374Z,2568.00
2019-06-27T07:02:58.163Z,2564.00
2019-06-27T07:03:58.177Z,2604.00
2019-06-27T07:04:58.207Z,2624.00
2019-06-27T07:05:58.203Z,2660.00
2019-06-27T07:06:58.274Z,2648.00
2019-06-27T07:07:58.247Z,2568.00
2019-06-27T07:08:58.256Z,2668.00
2019-06-27T07:09:58.688Z,2648.00
2019-06-27T07:10:58.695Z,2704.00
2019-06-27T07:11:59.244Z,2724.00
2019-06-27T07:12:58.669Z,2744.00
2019-06-27T07:14:00.041Z,2740.00
2019-06-27T07:14:58.401Z,2752.00
2019-06-27T07:15:58.649Z,2768.00
2019-06-27T07:16:58.383Z,2780.00
2019-06-27T07:17:58.469Z,2788.00
2019-06-27T07:18:58.434Z,2788.00
2019-06-27T07:19:58.491Z,2784.00
2019-06-27T07:21:58.453Z,2784.00
2019-06-27T07:22:59.965Z,2840.00
2019-06-27T07:23:58.507Z,2852.00
2019-06-27T07:24:59.715Z,2852.00
2019-06-27T07:26:00.821Z,2860.00
2019-06-27T07:26:58.550Z,2856.00
2019-06-27T07:27:59.692Z,2876.00
2019-06-27T07:28:58.568Z,2888.00
2019-06-27T07:31:58.618Z,2896.00
2019-06-27T07:32:58.630Z,2892.00
2019-06-27T07:33:58.805Z,2900.00
2019-06-27T07:34:58.666Z,2920.00
2019-06-27T07:35:58.686Z,2924.00
2019-06-27T07:36:58.687Z,2916.00
2019-06-27T07:37:58.710Z,2924.00
2019-06-27T07:38:58.733Z,2952.00
2019-06-27T07:39:58.744Z,2932.00
2019-06-27T07:40:58.813Z,2908.00
2019-06-27T07:41:58.824Z,2924.00
2019-06-27T07:42:58.788Z,2928.00
2019-06-27T07:43:58.800Z,2952.00
2019-06-27T07:44:58.821Z,2944.00
2019-06-27T07:45:58.836Z,2940.00
2019-06-27T07:46:58.852Z,2928.00
2019-06-27T07:47:58.923Z,2948.00
2019-06-27T07:48:58.880Z,2948.00
2019-06-27T07:49:58.918Z,2984.00
2019-06-27T07:50:58.933Z,2964.00
2019-06-27T07:51:58.926Z,2964.00
2019-06-27T07:52:58.949Z,2972.00
2019-06-27T07:53:58.961Z,2992.00
2019-06-27T07:54:58.980Z,2996.00
2019-06-27T07:55:58.990Z,2976.00
2019-06-27T07:56:59.025Z,3096.00
2019-06-27T07:58:00.028Z,3000.00
2019-06-27T07:59:00.570Z,3000.00
2019-06-27T07:59:59.132Z,3012.00
2019-06-27T08:00:59.170Z,3028.00
2019-06-27T08:01:59.099Z,3052.00
2019-06-27T08:02:59.110Z,3008.00
2019-06-27T08:03:59.185Z,3020.00
2019-06-27T08:04:59.138Z,3036.00
2019-06-27T08:05:59.291Z,3052.00
2019-06-27T08:06:59.158Z,3068.00
2019-06-27T08:07:59.179Z,3064.00
2019-06-27T08:08:59.193Z,3028.00
2019-06-27T08:09:59.214Z,3108.00
2019-06-27T08:10:59.220Z,3100.00
2019-06-27T08:11:59.248Z,3032.00
2019-06-27T08:12:59.253Z,3020.00
2019-06-27T08:13:59.282Z,3036.00
2019-06-27T08:14:59.283Z,3052.00
2019-06-27T08:15:59.300Z,3024.00
2019-06-27T08:16:59.318Z,3064.00
2019-06-27T08:17:59.339Z,3088.00
2019-06-27T08:18:59.367Z,3096.00
2019-06-27T08:19:59.389Z,3080.00
2019-06-27T08:20:59.385Z,3200.00
2019-06-27T08:21:59.403Z,3184.00
2019-06-27T08:22:59.412Z,3184.00
2019-06-27T08:23:59.443Z,3184.00
2019-06-27T08:24:59.441Z,3212.00
2019-06-27T08:25:59.660Z,3224.00
2019-06-27T08:26:59.512Z,3224.00
2019-06-27T08:27:59.492Z,3228.00
2019-06-27T08:28:59.506Z,3244.00
2019-06-27T08:30:03.224Z,3244.00
2019-06-27T08:30:59.544Z,3264.00
2019-06-27T08:31:59.566Z,3272.00
2019-06-27T08:32:59.574Z,3276.00
2019-06-27T08:33:59.583Z,3368.00
2019-06-27T08:34:59.609Z,3292.00
2019-06-27T08:35:59.629Z,3284.00
2019-06-27T08:36:59.628Z,3284.00
2019-06-27T08:37:59.755Z,3304.00
2019-06-27T08:38:59.666Z,3312.00
2019-06-27T08:40:59.724Z,3320.00
2019-06-27T08:41:59.758Z,3308.00
2019-06-27T08:42:59.728Z,3324.00
2019-06-27T08:43:59.748Z,3336.00
2019-06-27T08:44:59.763Z,3356.00
2019-06-27T08:45:59.787Z,3336.00
2019-06-27T08:46:59.790Z,3364.00
2019-06-27T08:47:59.844Z,3360.00
2019-06-27T08:48:59.824Z,3356.00
2019-06-27T08:50:00.945Z,3252.00
2019-06-27T08:50:59.860Z,3272.00
2019-06-27T08:51:59.867Z,3296.00
2019-06-27T08:53:01.449Z,3296.00
2019-06-27T08:53:59.930Z,3264.00
2019-06-27T08:55:00.107Z,3260.00
2019-06-27T08:55:59.989Z,3272.00
2019-06-27T08:56:59.952Z,3284.00
2019-06-27T08:57:59.998Z,3292.00
2019-06-27T08:58:59.993Z,3300.00
2019-06-27T09:00:00.013Z,3296.00
2019-06-27T09:01:00.055Z,3308.00
2019-06-27T09:02:08.722Z,3324.00
2019-06-27T09:03:00.076Z,3332.00
2019-06-27T09:04:00.075Z,3328.00
2019-06-27T09:05:00.096Z,3336.00
2019-06-27T09:06:00.125Z,3356.00
2019-06-27T09:07:00.327Z,3376.00
2019-06-27T09:08:00.142Z,3376.00
2019-06-27T09:09:00.159Z,3380.00
2019-06-27T09:10:00.187Z,3380.00
2019-06-27T09:11:00.168Z,3392.00
2019-06-27T09:12:00.189Z,3448.00
2019-06-27T09:13:00.221Z,3496.00
2019-06-27T09:14:00.232Z,3528.00
2019-06-27T09:15:00.243Z,3520.00
2019-06-27T09:16:00.272Z,3496.00
2019-06-27T09:17:00.274Z,3508.00
2019-06-27T09:18:00.290Z,3548.00
2019-06-27T09:19:00.303Z,3564.00
2019-06-27T09:20:00.624Z,3564.00
2019-06-27T09:21:00.914Z,3572.00
2019-06-27T09:22:00.689Z,3572.00
2019-06-27T09:23:00.572Z,3584.00
2019-06-27T09:24:00.848Z,3596.00
2019-06-27T09:26:00.414Z,3608.00
2019-06-27T09:27:00.483Z,3616.00
2019-06-27T09:28:00.455Z,3616.00
2019-06-27T09:29:00.459Z,3568.00
2019-06-27T09:30:00.474Z,3720.00
2019-06-27T09:31:00.490Z,3584.00
2019-06-27T09:32:00.532Z,3588.00
2019-06-27T09:33:00.523Z,3588.00
2019-06-27T09:34:00.548Z,3580.00
2019-06-27T09:35:00.594Z,3616.00
2019-06-27T09:36:00.576Z,3604.00
2019-06-27T09:37:00.590Z,3604.00
2019-06-27T09:38:00.633Z,3604.00
2019-06-27T09:39:00.781Z,3616.00
2019-06-27T09:40:00.948Z,3624.00
2019-06-27T09:41:00.668Z,3620.00
2019-06-27T09:42:00.682Z,3640.00
2019-06-27T09:43:00.695Z,3636.00
2019-06-27T09:44:00.706Z,3640.00
2019-06-27T09:45:00.734Z,3640.00
2019-06-27T09:46:00.781Z,3628.00
2019-06-27T09:47:00.803Z,3652.00
2019-06-27T09:48:00.767Z,3648.00
2019-06-27T09:49:00.833Z,3632.00
2019-06-27T09:50:01.327Z,3664.00
2019-06-27T09:51:00.809Z,3660.00
2019-06-27T09:52:00.835Z,3660.00
2019-06-27T09:53:00.865Z,3668.00
2019-06-27T09:54:00.865Z,3672.00
2019-06-27T09:55:00.901Z,3668.00
2019-06-27T09:56:01.120Z,3672.00
2019-06-27T09:57:00.959Z,3676.00
2019-06-27T09:58:00.937Z,3612.00
2019-06-27T10:00:00.978Z,3688.00
2019-06-27T10:01:00.971Z,3700.00
2019-06-27T10:02:00.986Z,3708.00
2019-06-27T10:03:01.005Z,3720.00
2019-06-27T10:04:01.023Z,3684.00
2019-06-27T10:05:01.038Z,3668.00
2019-06-27T10:06:01.317Z,3696.00
2019-06-27T10:07:01.093Z,3700.00
2019-06-27T10:08:01.116Z,3676.00
2019-06-27T10:09:01.109Z,3684.00
2019-06-27T10:10:01.185Z,3688.00
2019-06-27T10:11:01.159Z,3664.00
2019-06-27T10:12:01.151Z,3672.00
2019-06-27T10:13:01.180Z,3668.00
2019-06-27T10:14:01.294Z,3664.00
2019-06-27T10:15:01.211Z,3636.00
2019-06-27T10:16:01.229Z,3676.00
2019-06-27T10:17:01.240Z,3668.00
2019-06-27T10:18:01.397Z,3668.00
2019-06-27T10:19:01.281Z,3660.00
2019-06-27T10:20:01.283Z,3656.00
2019-06-27T10:21:01.303Z,3644.00
2019-06-27T10:22:01.355Z,3616.00
2019-06-27T10:23:01.783Z,3640.00
2019-06-27T10:24:01.354Z,3620.00
2019-06-27T10:25:01.367Z,3632.00
2019-06-27T10:26:01.386Z,3624.00
2019-06-27T10:27:01.395Z,3612.00
2019-06-27T10:28:03.231Z,3620.00
2019-06-27T10:29:02.860Z,3592.00
2019-06-27T10:30:01.449Z,3616.00
2019-06-27T10:31:01.466Z,3608.00
2019-06-27T10:32:01.722Z,3624.00
2019-06-27T10:33:01.494Z,3612.00
2019-06-27T10:34:01.587Z,3612.00
2019-06-27T10:35:05.558Z,3600.00
2019-06-27T10:36:04.673Z,3604.00
2019-06-27T10:37:01.582Z,3612.00
2019-06-27T10:38:01.579Z,3596.00
2019-06-27T10:39:01.636Z,3600.00
2019-06-27T10:40:01.644Z,3580.00
2019-06-27T10:41:01.632Z,3556.00
2019-06-27T10:42:01.648Z,3580.00
2019-06-27T10:43:01.672Z,3584.00
2019-06-27T10:44:01.679Z,3576.00
2019-06-27T10:45:02.102Z,3568.00
2019-06-27T10:46:01.712Z,3572.00
2019-06-27T10:47:01.788Z,3560.00
2019-06-27T10:48:01.744Z,3556.00
2019-06-27T10:49:01.767Z,3556.00
2019-06-27T10:50:01.777Z,3552.00
2019-06-27T10:51:01.808Z,3560.00
2019-06-27T10:52:01.824Z,3532.00
2019-06-27T10:53:01.849Z,3564.00
2019-06-27T10:54:01.934Z,3568.00
2019-06-27T10:55:01.879Z,3556.00
2019-06-27T10:56:01.893Z,3536.00
2019-06-27T10:57:01.911Z,3564.00
2019-06-27T10:58:01.923Z,3560.00
2019-06-27T10:59:01.988Z,3552.00
2019-06-27T11:00:02.186Z,3552.00
2019-06-27T11:02:02.096Z,3556.00
2019-06-27T11:03:14.824Z,3544.00
2019-06-27T11:04:02.159Z,3544.00
2019-06-27T11:05:02.076Z,3588.00
2019-06-27T11:06:02.057Z,3524.00
2019-06-27T11:07:02.083Z,3552.00
2019-06-27T11:08:02.089Z,3548.00
2019-06-27T11:09:03.369Z,3548.00
2019-06-27T11:10:05.048Z,3544.00
2019-06-27T11:11:02.166Z,3552.00
2019-06-27T11:12:02.778Z,3552.00
2019-06-27T11:14:02.193Z,3556.00
2019-06-27T11:15:02.271Z,3592.00
2019-06-27T11:16:02.246Z,3572.00
2019-06-27T11:17:02.404Z,3572.00
2019-06-27T11:18:02.785Z,3568.00
2019-06-27T11:19:02.277Z,3560.00
2019-06-27T11:20:02.305Z,3556.00
2019-06-27T11:21:02.302Z,3572.00
2019-06-27T11:22:02.373Z,3588.00
2019-06-27T11:23:02.342Z,3612.00
2019-06-27T11:24:02.358Z,3588.00
2019-06-27T11:25:02.424Z,3620.00
2019-06-27T11:26:02.436Z,3624.00
2019-06-27T11:27:02.626Z,3624.00
2019-06-27T11:28:02.528Z,3632.00
2019-06-27T11:29:02.612Z,3664.00
2019-06-27T11:30:02.492Z,3668.00
2019-06-27T11:31:02.476Z,3664.00
2019-06-27T11:32:02.519Z,3680.00
2019-06-27T11:33:02.513Z,3676.00
2019-06-27T11:34:02.527Z,3688.00
2019-06-27T11:35:02.615Z,3696.00
2019-06-27T11:36:02.576Z,3688.00
2019-06-27T11:37:02.621Z,3708.00
2019-06-27T11:38:02.592Z,3728.00
2019-06-27T11:39:02.720Z,3816.00
2019-06-27T11:40:02.634Z,3780.00
2019-06-27T11:41:02.679Z,3836.00
2019-06-27T11:42:02.685Z,3808.00
2019-06-27T11:43:04.390Z,3868.00
2019-06-27T11:44:02.985Z,3920.00
2019-06-27T11:45:02.753Z,3872.00
2019-06-27T11:46:02.731Z,3892.00
2019-06-27T11:47:02.781Z,3920.00
2019-06-27T11:48:02.826Z,3952.00
2019-06-27T11:49:02.810Z,3960.00
2019-06-27T11:50:02.813Z,3984.00
2019-06-27T11:51:03.076Z,4016.00
2019-06-27T11:52:02.881Z,4028.00
2019-06-27T11:54:04.175Z,4100.00
2019-06-27T11:55:02.903Z,4084.00
2019-06-27T11:56:02.907Z,4080.00
2019-06-27T11:57:02.924Z,4120.00
2019-06-27T11:58:02.971Z,4148.00
2019-06-27T11:59:03.112Z,4204.00
2019-06-27T12:00:03.100Z,4204.00
2019-06-27T12:02:03.187Z,4328.00
2019-06-27T12:04:03.587Z,4252.00
2019-06-27T12:05:03.630Z,4244.00
2019-06-27T12:06:03.134Z,4252.00
2019-06-27T12:07:03.407Z,4264.00
2019-06-27T12:08:03.142Z,4300.00
2019-06-27T12:09:03.151Z,4320.00
2019-06-27T12:10:04.257Z,4352.00
2019-06-27T12:11:03.262Z,4404.00
2019-06-27T12:12:04.058Z,4548.00
2019-06-27T12:13:03.267Z,4696.00
2019-06-27T12:14:03.245Z,4912.00
2019-06-27T12:15:03.366Z,4980.00
2019-06-27T12:17:03.385Z,5168.00
2019-06-27T12:18:03.320Z,5096.00
2019-06-27T12:19:03.352Z,5068.00
2019-06-27T12:20:03.355Z,5076.00
2019-06-27T12:21:05.900Z,5188.00
2019-06-27T12:22:03.420Z,5244.00
2019-06-27T12:23:03.395Z,5160.00
2019-06-27T12:24:03.516Z,5044.00
2019-06-27T12:25:03.662Z,4932.00
2019-06-27T12:26:03.546Z,4828.00
2019-06-27T12:27:03.472Z,4760.00
2019-06-27T12:28:03.497Z,4784.00
2019-06-27T12:29:03.540Z,4804.00
2019-06-27T12:30:03.683Z,4824.00
2019-06-27T12:31:19.261Z,4812.00
2019-06-27T12:32:03.554Z,4996.00
2019-06-27T12:33:03.642Z,5204.00
2019-06-27T12:34:07.264Z,5656.00
2019-06-27T12:35:05.032Z,6356.00
2019-06-27T12:37:03.791Z,7496.00
2019-06-27T12:38:03.912Z,7844.00
2019-06-27T12:39:03.803Z,8024.00
2019-06-27T12:40:03.723Z,8208.00
2019-06-27T12:41:03.783Z,8304.00
2019-06-27T12:42:03.756Z,8404.00
2019-06-27T12:43:04.071Z,8536.00
2019-06-27T12:44:03.854Z,8616.00
2019-06-27T12:45:03.826Z,8716.00
2019-06-27T12:46:03.924Z,8704.00
2019-06-27T12:47:03.874Z,8768.00
2019-06-27T12:48:07.297Z,8776.00